createdAt,value
2022-08-18T00:01:06.698Z,18.72
2022-08-18T00:03:56.172Z,18.80
2022-08-18T00:06:19.891Z,18.79
2022-08-18T00:08:46.285Z,18.81
2022-08-18T00:11:14.765Z,18.84
2022-08-18T00:13:41.108Z,18.78
2022-08-18T00:16:07.427Z,18.76
2022-08-18T00:18:33.744Z,18.74
2022-08-18T00:21:00.182Z,18.73
2022-08-18T00:23:26.498Z,18.71
2022-08-18T00:25:52.832Z,18.69
2022-08-18T00:28:20.500Z,18.66
2022-08-18T00:30:50.306Z,18.64
2022-08-18T00:33:21.045Z,18.57
2022-08-18T00:35:47.386Z,18.50
2022-08-18T00:38:24.518Z,18.44
2022-08-18T00:40:52.744Z,18.41
2022-08-18T00:43:31.966Z,18.42
2022-08-18T00:45:58.351Z,18.42
2022-08-18T00:48:25.659Z,18.41
2022-08-18T00:50:53.117Z,18.39
2022-08-18T00:53:21.320Z,18.36
2022-08-18T00:55:54.067Z,18.36
2022-08-18T00:58:24.469Z,18.32
2022-08-18T01:00:51.275Z,18.30
2022-08-18T01:03:24.563Z,18.31
2022-08-18T01:05:55.275Z,18.34
2022-08-18T01:08:28.430Z,18.40
2022-08-18T01:10:55.929Z,18.35
2022-08-18T01:13:26.932Z,18.29
2022-08-18T01:15:53.259Z,18.27
2022-08-18T01:18:19.594Z,18.26
2022-08-18T01:20:50.632Z,18.28
2022-08-18T01:23:20.683Z,18.30
2022-08-18T01:25:47.968Z,18.34
2022-08-18T01:28:14.270Z,18.37
2022-08-18T01:30:45.506Z,18.41
2022-08-18T01:33:11.820Z,18.44
2022-08-18T01:35:41.916Z,18.48
2022-08-18T01:38:08.453Z,18.50
2022-08-18T01:41:27.543Z,18.52
2022-08-18T01:43:22.412Z,18.53
2022-08-18T01:45:48.868Z,18.54
2022-08-18T01:48:15.247Z,18.56
2022-08-18T01:50:41.555Z,18.58
2022-08-18T01:53:08.306Z,18.60
2022-08-18T01:55:36.967Z,18.63
2022-08-18T01:58:03.791Z,18.66
2022-08-18T02:00:30.144Z,18.68
2022-08-18T02:03:01.676Z,18.69
2022-08-18T02:05:32.047Z,18.73
2022-08-18T02:07:58.794Z,18.74
2022-08-18T02:10:25.169Z,18.77
2022-08-18T02:12:52.847Z,18.79
2022-08-18T02:15:19.295Z,18.80
2022-08-18T02:17:46.079Z,18.81
2022-08-18T02:20:14.046Z,18.81
2022-08-18T02:22:40.796Z,18.82
2022-08-18T02:25:07.834Z,18.83
2022-08-18T02:27:34.374Z,18.83
2022-08-18T02:30:03.951Z,18.82
2022-08-18T02:32:31.487Z,18.83
2022-08-18T02:34:57.852Z,18.81
2022-08-18T02:37:24.176Z,18.81
2022-08-18T02:39:50.671Z,18.81
2022-08-18T02:42:17.441Z,18.81
2022-08-18T02:44:43.780Z,18.81
2022-08-18T02:47:11.488Z,18.82
2022-08-18T02:49:38.067Z,18.82
2022-08-18T02:52:04.502Z,18.80
2022-08-18T02:54:30.811Z,18.80
2022-08-18T02:56:57.491Z,18.78
2022-08-18T02:59:24.743Z,18.77
2022-08-18T03:01:52.245Z,18.76
2022-08-18T03:04:25.413Z,18.78
2022-08-18T03:06:55.099Z,18.80
2022-08-18T03:09:21.954Z,18.82
2022-08-18T03:11:48.450Z,18.83
2022-08-18T03:14:15.268Z,18.85
2022-08-18T03:16:47.209Z,18.84
2022-08-18T03:19:23.058Z,18.84
2022-08-18T03:21:49.419Z,18.86
2022-08-18T03:24:22.451Z,18.85
2022-08-18T03:26:49.801Z,18.87
2022-08-18T03:29:16.399Z,18.85
2022-08-18T03:31:43.823Z,18.82
2022-08-18T03:34:10.222Z,18.82
2022-08-18T03:36:38.223Z,18.82
2022-08-18T03:39:05.602Z,18.82
2022-08-18T03:41:44.459Z,18.81
2022-08-18T03:44:18.545Z,18.79
2022-08-18T03:46:44.857Z,18.78
2022-08-18T03:49:11.809Z,18.77
2022-08-18T03:51:42.412Z,18.75
2022-08-18T03:56:50.009Z,18.64
2022-08-18T03:59:17.612Z,18.59
2022-08-18T04:01:44.553Z,18.56
2022-08-18T04:04:12.116Z,18.55
2022-08-18T04:06:40.788Z,18.51
2022-08-18T04:09:08.077Z,18.49
2022-08-18T04:11:37.070Z,18.47
2022-08-18T04:14:05.664Z,18.47
2022-08-18T04:16:32.514Z,18.43
2022-08-18T04:18:59.442Z,18.42
2022-08-18T04:21:25.800Z,18.41
2022-08-18T04:23:52.119Z,18.43
2022-08-18T04:26:19.312Z,18.43
2022-08-18T04:28:46.167Z,18.45
2022-08-18T04:31:14.821Z,18.48
2022-08-18T04:33:42.094Z,18.52
2022-08-18T04:36:09.702Z,18.51
2022-08-18T04:38:36.092Z,18.56
2022-08-18T04:41:02.425Z,18.66
2022-08-18T04:43:28.948Z,18.68
2022-08-18T04:45:55.284Z,18.65
2022-08-18T04:48:22.971Z,18.70
2022-08-18T04:50:49.282Z,18.63
2022-08-18T04:53:15.576Z,18.69
2022-08-18T04:55:46.056Z,18.73
2022-08-18T04:58:12.381Z,18.79
2022-08-18T05:00:38.707Z,18.64
2022-08-18T05:03:05.027Z,18.60
2022-08-18T05:05:32.665Z,18.60
2022-08-18T05:07:58.999Z,18.72
2022-08-18T05:10:25.307Z,18.69
2022-08-18T05:12:51.627Z,18.67
2022-08-18T05:15:17.955Z,18.66
2022-08-18T05:17:44.577Z,18.72
2022-08-18T05:20:13.992Z,18.69
2022-08-18T05:22:42.567Z,18.70
2022-08-18T05:25:10.000Z,18.70
2022-08-18T05:27:37.015Z,18.68
2022-08-18T05:30:05.017Z,18.78
2022-08-18T05:32:48.234Z,18.73
2022-08-18T05:35:18.376Z,18.65
2022-08-18T05:37:51.904Z,18.62
2022-08-18T05:40:22.102Z,18.63
2022-08-18T05:42:48.459Z,18.65
2022-08-18T05:45:17.268Z,18.69
2022-08-18T05:47:43.635Z,18.73
2022-08-18T05:50:11.203Z,18.71
2022-08-18T05:52:39.560Z,18.74
2022-08-18T05:55:10.126Z,18.94
2022-08-18T05:57:40.022Z,18.87
2022-08-18T06:00:06.826Z,18.80
2022-08-18T06:02:34.966Z,18.67
2022-08-18T06:05:03.528Z,18.66
2022-08-18T06:07:33.902Z,18.71
2022-08-18T06:10:00.836Z,18.73
2022-08-18T06:12:31.307Z,18.74
2022-08-18T06:15:06.431Z,18.74
2022-08-18T06:17:43.791Z,18.79
2022-08-18T06:20:17.112Z,18.85
2022-08-18T06:22:53.360Z,18.78
2022-08-18T06:25:25.652Z,18.84
2022-08-18T06:27:55.272Z,18.81
2022-08-18T06:30:24.249Z,18.97
2022-08-18T06:33:08.587Z,19.03
2022-08-18T06:35:36.318Z,19.02
2022-08-18T06:38:08.259Z,19.00
2022-08-18T06:40:34.604Z,19.02
2022-08-18T06:43:02.686Z,18.99
2022-08-18T06:45:35.842Z,18.99
2022-08-18T06:48:15.425Z,19.05
2022-08-18T06:50:47.791Z,19.22
2022-08-18T06:53:26.833Z,19.31
2022-08-18T06:55:54.003Z,19.34
2022-08-18T06:58:25.242Z,19.33
2022-08-18T07:00:56.508Z,19.31
2022-08-18T07:03:24.118Z,19.37
2022-08-18T07:05:58.803Z,19.42
2022-08-18T07:08:30.465Z,19.49
2022-08-18T07:11:10.149Z,19.48
2022-08-18T07:13:39.207Z,19.46
2022-08-18T07:16:30.174Z,19.53
2022-08-18T07:19:07.093Z,19.60
2022-08-18T07:21:34.740Z,19.64
2022-08-18T07:24:23.637Z,19.65
2022-08-18T07:26:58.803Z,19.66
2022-08-18T07:29:26.751Z,19.67
2022-08-18T07:31:54.831Z,19.78
2022-08-18T07:34:23.710Z,19.79
2022-08-18T07:36:52.299Z,19.78
2022-08-18T07:39:20.592Z,19.73
2022-08-18T07:41:49.093Z,19.74
2022-08-18T07:44:21.189Z,19.89
2022-08-18T07:46:52.203Z,19.92
2022-08-18T07:49:22.404Z,19.97
2022-08-18T07:51:53.438Z,20.05
2022-08-18T07:54:48.368Z,20.04
2022-08-18T07:57:20.150Z,20.08
2022-08-18T07:59:48.156Z,20.09
2022-08-18T08:02:31.908Z,20.14
2022-08-18T08:05:04.763Z,20.24
2022-08-18T08:07:37.236Z,20.31
2022-08-18T08:10:12.839Z,20.29
2022-08-18T08:12:43.399Z,20.44
2022-08-18T08:15:15.751Z,20.52
2022-08-18T08:17:49.046Z,20.40
2022-08-18T08:20:21.291Z,20.46
2022-08-18T08:22:54.351Z,20.56
2022-08-18T08:25:45.013Z,20.62
2022-08-18T08:28:18.206Z,20.72
2022-08-18T08:30:48.471Z,20.66
2022-08-18T08:33:22.677Z,20.63
2022-08-18T08:35:52.960Z,20.61
2022-08-18T08:38:40.269Z,20.55
2022-08-18T08:41:11.195Z,20.65
2022-08-18T08:43:40.295Z,20.70
2022-08-18T08:46:10.855Z,20.90
2022-08-18T08:48:40.253Z,21.03
2022-08-18T08:51:14.062Z,21.15
2022-08-18T08:53:46.696Z,21.18
2022-08-18T08:56:15.115Z,21.27
2022-08-18T08:58:45.275Z,21.28
2022-08-18T09:01:31.566Z,21.24
2022-08-18T09:04:03.921Z,21.32
2022-08-18T09:06:36.037Z,21.32
2022-08-18T09:09:11.802Z,21.33
2022-08-18T09:11:47.583Z,21.53
2022-08-18T09:14:26.796Z,21.42
2022-08-18T09:17:00.877Z,21.41
2022-08-18T09:19:36.895Z,21.40
2022-08-18T09:22:07.881Z,21.53
2022-08-18T09:24:39.590Z,21.57
2022-08-18T09:27:12.976Z,21.58
2022-08-18T09:29:47.802Z,21.57
2022-08-18T09:32:32.701Z,21.52
2022-08-18T09:35:09.892Z,21.53
2022-08-18T09:37:42.999Z,21.56
2022-08-18T09:40:13.993Z,21.55
2022-08-18T09:42:49.707Z,21.64
2022-08-18T09:45:41.375Z,21.58
2022-08-18T09:50:38.215Z,21.63
2022-08-18T09:51:23.819Z,21.75
2022-08-18T09:54:05.104Z,21.83
2022-08-18T09:56:54.261Z,21.92
2022-08-18T09:59:40.569Z,22.06
2022-08-18T10:02:20.057Z,22.31
2022-08-18T10:04:50.631Z,22.47
2022-08-18T10:07:22.938Z,22.66
2022-08-18T10:10:58.701Z,22.80
2022-08-18T10:13:03.615Z,22.96
2022-08-18T10:15:42.294Z,23.01
2022-08-18T10:18:27.273Z,22.98
2022-08-18T10:20:58.968Z,22.94
2022-08-18T10:23:49.426Z,22.97
2022-08-18T10:26:39.290Z,23.01
2022-08-18T10:29:08.639Z,23.05
2022-08-18T10:31:56.472Z,23.10
2022-08-18T10:34:36.994Z,23.15
2022-08-18T10:37:11.576Z,23.21
2022-08-18T10:39:44.993Z,23.16
2022-08-18T10:42:14.749Z,23.23
2022-08-18T10:44:43.918Z,23.36
2022-08-18T10:47:19.661Z,23.53
2022-08-18T10:49:52.408Z,23.63
2022-08-18T10:52:35.227Z,23.68
2022-08-18T10:55:14.470Z,23.89
2022-08-18T10:57:53.201Z,24.18
2022-08-18T11:00:22.360Z,24.23
2022-08-18T11:05:45.336Z,24.01
2022-08-18T11:08:15.716Z,24.07
2022-08-18T11:10:57.280Z,24.11
2022-08-18T11:13:33.366Z,24.04
2022-08-18T11:16:06.271Z,24.18
2022-08-18T11:18:42.737Z,24.43
2022-08-18T11:21:22.789Z,24.35
2022-08-18T11:24:02.004Z,24.44
2022-08-18T11:26:29.899Z,24.54
2022-08-18T11:28:56.225Z,24.65
2022-08-18T11:31:24.151Z,24.64
2022-08-18T11:33:51.383Z,24.54
2022-08-18T11:36:17.883Z,24.45
2022-08-18T11:38:53.681Z,24.68
2022-08-18T11:41:24.210Z,24.79
2022-08-18T11:43:55.402Z,24.82
2022-08-18T11:46:24.934Z,24.92
2022-08-18T11:48:57.508Z,24.87
2022-08-18T11:51:26.988Z,24.98
2022-08-18T11:53:58.677Z,25.01
2022-08-18T11:56:30.786Z,24.90
2022-08-18T11:58:59.279Z,24.75
2022-08-18T12:01:28.513Z,24.60
2022-08-18T12:04:09.545Z,24.72
2022-08-18T12:06:38.041Z,24.70
2022-08-18T12:09:19.981Z,24.63
2022-08-18T12:12:03.287Z,24.43
2022-08-18T12:14:35.474Z,24.33
2022-08-18T12:17:03.041Z,24.35
2022-08-18T12:19:30.893Z,24.44
2022-08-18T12:21:59.321Z,24.54
2022-08-18T12:24:28.802Z,24.75
2022-08-18T12:27:01.063Z,24.83
2022-08-18T12:29:33.089Z,24.88
2022-08-18T12:32:17.969Z,24.81
2022-08-18T12:35:02.052Z,24.88
2022-08-18T12:40:19.849Z,25.12
2022-08-18T12:42:49.104Z,25.11
2022-08-18T12:45:16.264Z,25.13
2022-08-18T12:47:42.599Z,25.09
2022-08-18T12:50:10.623Z,24.99
2022-08-18T12:52:36.999Z,24.92
2022-08-18T12:55:05.829Z,24.88
2022-08-18T12:57:51.738Z,25.01
2022-08-18T13:00:18.734Z,25.19
2022-08-18T13:02:45.172Z,25.27
2022-08-18T13:05:12.828Z,25.31
2022-08-18T13:07:39.176Z,25.35
2022-08-18T13:10:06.611Z,25.38
2022-08-18T13:12:32.929Z,25.42
2022-08-18T13:14:59.922Z,25.46
2022-08-18T13:17:29.425Z,25.49
2022-08-18T13:20:00.682Z,25.46
2022-08-18T13:22:32.817Z,25.44
2022-08-18T13:24:59.722Z,25.39
2022-08-18T13:27:26.712Z,25.43
2022-08-18T13:29:59.185Z,25.40
2022-08-18T13:32:25.579Z,25.47
2022-08-18T13:34:54.528Z,25.54
2022-08-18T13:37:23.054Z,25.68
2022-08-18T13:39:52.923Z,25.83
2022-08-18T13:42:26.708Z,25.95
2022-08-18T13:44:58.922Z,25.99
2022-08-18T13:47:45.275Z,25.96
2022-08-18T13:50:13.572Z,25.83
2022-08-18T13:52:54.194Z,25.85
2022-08-18T13:55:21.971Z,25.98
2022-08-18T13:57:49.843Z,25.93
2022-08-18T14:00:18.327Z,26.04
2022-08-18T14:02:47.112Z,26.18
2022-08-18T14:05:14.118Z,26.30
2022-08-18T14:07:40.459Z,26.36
2022-08-18T14:10:10.753Z,26.37
2022-08-18T14:12:41.708Z,26.49
2022-08-18T14:15:10.040Z,26.36
2022-08-18T14:17:36.352Z,26.37
2022-08-18T14:20:03.839Z,26.26
2022-08-18T14:22:30.174Z,26.28
2022-08-18T14:24:57.015Z,26.37
2022-08-18T14:27:26.184Z,26.42
2022-08-18T14:29:55.133Z,26.38
2022-08-18T14:32:29.370Z,26.37
2022-08-18T14:35:00.268Z,26.40
2022-08-18T14:37:28.222Z,26.48
2022-08-18T14:39:55.677Z,26.58
2022-08-18T14:42:41.392Z,26.61
2022-08-18T14:45:17.670Z,26.32
2022-08-18T14:47:57.750Z,26.20
2022-08-18T14:50:25.643Z,26.19
2022-08-18T14:52:52.735Z,26.19
2022-08-18T14:55:20.178Z,26.30
2022-08-18T14:57:46.716Z,26.17
2022-08-18T15:00:17.376Z,26.34
2022-08-18T15:02:47.446Z,26.06
2022-08-18T15:05:19.592Z,26.09
2022-08-18T15:07:51.036Z,26.00
2022-08-18T15:10:19.934Z,25.98
2022-08-18T15:12:50.206Z,25.87
2022-08-18T15:15:18.528Z,25.88
2022-08-18T15:17:44.965Z,25.98
2022-08-18T15:20:17.005Z,25.90
2022-08-18T15:22:45.262Z,25.71
2022-08-18T15:25:11.588Z,25.65
2022-08-18T15:27:42.632Z,25.56
2022-08-18T15:30:12.615Z,25.68
2022-08-18T15:32:49.879Z,25.68
2022-08-18T15:35:16.826Z,25.70
2022-08-18T15:37:44.251Z,25.73
2022-08-18T15:40:30.591Z,25.78
2022-08-18T15:43:01.249Z,25.76
2022-08-18T15:45:28.750Z,25.81
2022-08-18T15:48:03.666Z,26.00
2022-08-18T15:50:30.899Z,25.91
2022-08-18T15:52:59.942Z,26.01
2022-08-18T15:55:27.650Z,25.95
2022-08-18T15:57:58.058Z,25.87
2022-08-18T16:00:25.983Z,25.81
2022-08-18T16:02:53.517Z,25.91
2022-08-18T16:05:21.198Z,25.93
2022-08-18T16:07:47.842Z,25.84
2022-08-18T16:10:14.811Z,25.84
2022-08-18T16:12:45.682Z,25.87
2022-08-18T16:17:44.457Z,25.85
2022-08-18T16:20:14.031Z,25.85
2022-08-18T16:22:41.709Z,25.81
2022-08-18T16:25:08.678Z,25.84
2022-08-18T16:27:35.147Z,25.90
2022-08-18T16:30:01.937Z,25.86
2022-08-18T16:32:28.263Z,25.72
2022-08-18T16:34:54.575Z,25.70
2022-08-18T16:37:20.871Z,25.69
2022-08-18T16:39:48.609Z,25.62
2022-08-18T16:42:14.982Z,25.56
2022-08-18T16:44:41.345Z,25.49
2022-08-18T16:47:07.751Z,25.44
2022-08-18T16:49:34.793Z,25.41
2022-08-18T16:52:01.294Z,25.38
2022-08-18T16:54:27.870Z,25.41
2022-08-18T16:56:55.631Z,25.37
2022-08-18T16:59:22.103Z,25.31
2022-08-18T17:01:48.832Z,25.28
2022-08-18T17:04:20.847Z,25.25
2022-08-18T17:06:47.948Z,25.31
2022-08-18T17:09:14.465Z,25.47
2022-08-18T17:11:48.150Z,25.50
2022-08-18T17:14:20.010Z,25.38
2022-08-18T17:16:46.439Z,25.42
2022-08-18T17:19:12.763Z,25.41
2022-08-18T17:21:39.114Z,25.41
2022-08-18T17:24:07.252Z,25.41
2022-08-18T17:26:39.879Z,25.45
2022-08-18T17:29:12.909Z,25.50
2022-08-18T17:31:42.855Z,25.58
2022-08-18T17:34:12.708Z,25.44
2022-08-18T17:36:42.372Z,25.48
2022-08-18T17:39:22.163Z,25.56
2022-08-18T17:41:49.018Z,25.63
2022-08-18T17:44:15.350Z,25.65
2022-08-18T17:46:43.043Z,25.62
2022-08-18T17:49:11.790Z,25.62
2022-08-18T17:51:43.529Z,25.71
2022-08-18T17:54:14.966Z,25.62
2022-08-18T17:56:44.794Z,25.66
2022-08-18T17:59:45.714Z,25.66
2022-08-18T18:02:09.479Z,25.57
2022-08-18T18:04:55.494Z,25.47
2022-08-18T18:07:23.676Z,25.42
2022-08-18T18:09:54.707Z,25.31
2022-08-18T18:12:23.211Z,25.18
2022-08-18T18:14:49.907Z,25.01
2022-08-18T18:17:18.711Z,24.93
2022-08-18T18:19:46.655Z,24.85
2022-08-18T18:22:17.622Z,24.71
2022-08-18T18:24:48.963Z,24.72
2022-08-18T18:27:24.451Z,24.62
2022-08-18T18:29:54.839Z,24.47
2022-08-18T18:32:25.075Z,24.34
2022-08-18T18:35:01.536Z,24.19
2022-08-18T18:37:29.299Z,24.09
2022-08-18T18:39:57.079Z,23.99
2022-08-18T18:42:24.423Z,23.91
2022-08-18T18:44:52.078Z,23.83
2022-08-18T18:47:25.952Z,23.76
2022-08-18T18:50:00.592Z,23.67
2022-08-18T18:52:33.824Z,23.57
2022-08-18T18:55:02.278Z,23.51
2022-08-18T18:57:34.894Z,23.46
2022-08-18T19:00:05.356Z,23.39
2022-08-18T19:02:40.380Z,23.29
2022-08-18T19:05:16.656Z,23.19
2022-08-18T19:07:50.518Z,23.12
2022-08-18T19:10:19.172Z,23.06
2022-08-18T19:12:50.879Z,22.98
2022-08-18T19:15:19.265Z,22.91
2022-08-18T19:17:48.955Z,22.82
2022-08-18T19:20:18.011Z,22.74
2022-08-18T19:22:49.674Z,22.65
2022-08-18T19:25:19.277Z,22.58
2022-08-18T19:27:48.122Z,22.50
2022-08-18T19:30:15.523Z,22.44
2022-08-18T19:32:43.831Z,22.39
2022-08-18T19:35:14.610Z,22.34
2022-08-18T19:37:55.851Z,22.29
2022-08-18T19:40:27.149Z,22.21
2022-08-18T19:42:58.591Z,22.12
2022-08-18T19:45:28.125Z,22.03
2022-08-18T19:47:56.583Z,21.96
2022-08-18T19:50:25.826Z,21.91
2022-08-18T19:53:02.348Z,21.88
2022-08-18T19:55:34.486Z,21.83
2022-08-18T19:58:11.335Z,21.77
2022-08-18T20:00:42.125Z,21.74
2022-08-18T20:03:17.906Z,21.71
2022-08-18T20:05:50.227Z,21.62
2022-08-18T20:08:34.257Z,21.55
2022-08-18T20:11:19.174Z,21.47
2022-08-18T20:13:45.824Z,21.39
2022-08-18T20:16:14.391Z,21.38
2022-08-18T20:18:42.008Z,21.33
2022-08-18T20:21:26.298Z,21.29
2022-08-18T20:23:59.884Z,21.23
2022-08-18T20:26:44.503Z,21.17
2022-08-18T20:29:11.801Z,21.16
2022-08-18T20:31:46.417Z,21.13
2022-08-18T20:34:14.614Z,21.12
2022-08-18T20:36:42.460Z,21.08
2022-08-18T20:39:28.698Z,21.02
2022-08-18T20:41:56.487Z,20.97
2022-08-18T20:44:38.283Z,20.94
2022-08-18T20:47:19.499Z,20.91
2022-08-18T20:49:54.108Z,20.89
2022-08-18T20:52:29.613Z,20.88
2022-08-18T20:55:03.128Z,20.85
2022-08-18T20:57:40.139Z,20.82
2022-08-18T21:00:08.012Z,20.78
2022-08-18T21:02:35.671Z,20.78
2022-08-18T21:05:01.991Z,20.76
2022-08-18T21:07:37.443Z,20.73
2022-08-18T21:10:12.685Z,20.67
2022-08-18T21:12:51.819Z,20.61
2022-08-18T21:15:19.132Z,20.56
2022-08-18T21:17:45.475Z,20.51
2022-08-18T21:20:14.004Z,20.45
2022-08-18T21:22:41.201Z,20.43
2022-08-18T21:25:10.510Z,20.41
2022-08-18T21:27:38.135Z,20.32
2022-08-18T21:30:07.851Z,20.29
2022-08-18T21:32:35.247Z,20.29
2022-08-18T21:35:02.426Z,20.29
2022-08-18T21:37:28.775Z,20.27
2022-08-18T21:39:58.174Z,20.26
2022-08-18T21:42:25.537Z,20.21
2022-08-18T21:44:53.885Z,20.18
2022-08-18T21:47:23.832Z,20.15
2022-08-18T21:50:01.410Z,20.10
2022-08-18T21:52:28.966Z,20.10
2022-08-18T21:54:57.295Z,20.04
2022-08-18T21:57:24.997Z,19.99
2022-08-18T22:00:10.547Z,19.94
2022-08-18T22:02:38.440Z,19.90
2022-08-18T22:05:05.130Z,19.88
2022-08-18T22:07:35.126Z,19.84
2022-08-18T22:10:02.894Z,19.82
2022-08-18T22:12:33.195Z,19.82
2022-08-18T22:15:05.106Z,19.79
2022-08-18T22:17:32.974Z,19.78
2022-08-18T22:20:18.079Z,19.78
2022-08-18T22:22:45.818Z,19.75
2022-08-18T22:25:12.141Z,19.72
2022-08-18T22:27:38.597Z,19.65
2022-08-18T22:30:05.349Z,19.58
2022-08-18T22:32:32.511Z,19.56
2022-08-18T22:34:58.846Z,19.53
2022-08-18T22:37:26.186Z,19.51
2022-08-18T22:39:55.665Z,19.49
2022-08-18T22:42:24.371Z,19.46
2022-08-18T22:44:51.007Z,19.44
2022-08-18T22:47:17.490Z,19.42
2022-08-18T22:49:43.883Z,19.37
2022-08-18T22:52:14.355Z,19.30
2022-08-18T22:54:40.771Z,19.24
2022-08-18T22:57:11.272Z,19.21
2022-08-18T22:59:42.663Z,19.16
2022-08-18T23:02:09.538Z,19.12
2022-08-18T23:04:35.932Z,19.10
2022-08-18T23:07:02.294Z,19.04
2022-08-18T23:09:30.226Z,18.98
2022-08-18T23:11:57.839Z,18.93
2022-08-18T23:14:25.635Z,18.86
2022-08-18T23:16:52.072Z,18.79
2022-08-18T23:19:19.116Z,18.75
2022-08-18T23:21:46.118Z,18.72
2022-08-18T23:24:14.213Z,18.73
2022-08-18T23:26:40.688Z,18.70
2022-08-18T23:29:07.988Z,18.71
2022-08-18T23:31:35.648Z,18.70
2022-08-18T23:34:01.989Z,18.69
2022-08-18T23:36:28.677Z,18.65
2022-08-18T23:38:55.041Z,18.54
2022-08-18T23:41:21.388Z,18.46
2022-08-18T23:43:53.000Z,18.38
2022-08-18T23:46:20.232Z,18.36
2022-08-18T23:48:47.966Z,18.34
2022-08-18T23:51:23.949Z,18.35
2022-08-18T23:53:50.391Z,18.36
2022-08-18T23:56:16.971Z,18.35
2022-08-18T23:58:46.142Z,18.35
